createdAt,value
2017-10-02T00:00:27.471Z,22.80
2017-10-02T00:02:55.613Z,17.47
2017-10-02T00:05:23.768Z,15.10
2017-10-02T00:07:52.114Z,18.80
2017-10-02T00:10:20.261Z,16.13
2017-10-02T00:12:48.970Z,18.20
2017-10-02T00:15:17.140Z,17.37
2017-10-02T00:17:45.292Z,16.03
2017-10-02T00:20:13.385Z,17.43
2017-10-02T00:22:41.527Z,21.10
2017-10-02T00:25:09.754Z,18.63
2017-10-02T00:27:37.945Z,21.10
2017-10-02T00:30:06.199Z,16.37
2017-10-02T00:32:34.445Z,22.00
2017-10-02T00:35:02.584Z,16.73
2017-10-02T00:37:31.457Z,19.97
2017-10-02T00:39:59.730Z,16.90
2017-10-02T00:42:27.802Z,17.27
2017-10-02T00:44:55.898Z,16.93
2017-10-02T00:47:24.028Z,19.50
2017-10-02T00:49:52.102Z,16.67
2017-10-02T00:52:20.214Z,15.53
2017-10-02T00:54:48.340Z,17.80
2017-10-02T00:57:16.445Z,15.97
2017-10-02T00:59:44.611Z,16.13
2017-10-02T01:02:13.504Z,16.43
2017-10-02T01:04:41.648Z,18.17
2017-10-02T01:07:09.741Z,15.53
2017-10-02T01:09:37.848Z,17.10
2017-10-02T01:12:05.953Z,18.73
2017-10-02T01:14:34.124Z,17.23
2017-10-02T01:17:02.290Z,18.17
2017-10-02T01:19:30.371Z,18.07
2017-10-02T01:21:58.517Z,17.90
2017-10-02T01:24:26.589Z,17.93
2017-10-02T01:26:54.694Z,19.10
2017-10-02T01:29:22.791Z,15.67
2017-10-02T01:31:51.659Z,17.50
2017-10-02T01:34:19.778Z,16.43
2017-10-02T01:36:47.928Z,17.00
2017-10-02T01:39:16.023Z,20.40
2017-10-02T01:41:44.141Z,18.20
2017-10-02T01:44:12.333Z,19.50
2017-10-02T01:46:40.442Z,19.13
2017-10-02T01:49:08.529Z,16.90
2017-10-02T01:51:36.687Z,19.50
2017-10-02T01:54:04.770Z,18.20
2017-10-02T01:56:33.632Z,17.07
2017-10-02T01:59:02.540Z,17.03
2017-10-02T02:01:30.656Z,20.87
2017-10-02T02:03:58.759Z,19.40
2017-10-02T02:06:27.650Z,15.83
2017-10-02T02:08:55.745Z,23.63
2017-10-02T02:11:24.621Z,16.33
2017-10-02T02:13:52.714Z,20.10
2017-10-02T02:16:20.796Z,18.73
2017-10-02T02:18:48.866Z,18.90
2017-10-02T02:21:18.569Z,15.53
2017-10-02T02:23:46.702Z,17.97
2017-10-02T02:26:14.837Z,15.57
2017-10-02T02:28:42.972Z,17.07
2017-10-02T02:31:11.121Z,17.30
2017-10-02T02:33:39.953Z,16.53
2017-10-02T02:36:08.791Z,17.43
2017-10-02T02:38:37.669Z,18.30
2017-10-02T02:41:06.533Z,19.10
2017-10-02T02:43:34.748Z,19.33
2017-10-02T02:46:02.841Z,17.73
2017-10-02T02:48:30.982Z,17.40
2017-10-02T02:50:59.103Z,17.17
2017-10-02T02:53:27.182Z,16.93
2017-10-02T02:55:55.277Z,16.73
2017-10-02T02:58:23.398Z,17.00
2017-10-02T03:00:52.244Z,17.43
2017-10-02T03:03:20.332Z,16.87
2017-10-02T03:05:49.220Z,14.93
2017-10-02T03:08:17.324Z,15.73
2017-10-02T03:10:45.445Z,17.30
2017-10-02T03:13:13.554Z,20.30
2017-10-02T03:15:41.728Z,15.33
2017-10-02T03:18:10.353Z,15.27
2017-10-02T03:20:39.350Z,16.70
2017-10-02T03:23:07.444Z,17.63
2017-10-02T03:25:36.310Z,17.10
2017-10-02T03:28:04.424Z,17.83
2017-10-02T03:30:33.291Z,16.23
2017-10-02T03:33:01.402Z,19.63
2017-10-02T03:35:29.535Z,15.30
2017-10-02T03:37:58.449Z,18.07
2017-10-02T03:40:26.566Z,16.10
2017-10-02T03:42:54.693Z,16.43
2017-10-02T03:45:23.537Z,17.07
2017-10-02T03:47:51.658Z,16.60
2017-10-02T03:50:20.800Z,17.50
2017-10-02T03:52:49.668Z,17.10
2017-10-02T03:55:17.774Z,16.43
2017-10-02T03:57:45.906Z,16.93
2017-10-02T04:00:14.876Z,14.90
2017-10-02T04:02:42.970Z,17.80
2017-10-02T04:05:11.077Z,18.17
2017-10-02T04:07:39.172Z,20.00
2017-10-02T04:10:07.328Z,16.00
2017-10-02T04:12:35.438Z,15.80
2017-10-02T04:15:04.329Z,15.07
2017-10-02T04:17:32.415Z,16.70
2017-10-02T04:20:01.278Z,17.40
2017-10-02T04:22:29.385Z,14.40
2017-10-02T04:24:57.503Z,17.40
2017-10-02T04:27:26.389Z,13.77
2017-10-02T04:29:54.522Z,16.13
2017-10-02T04:32:22.628Z,26.07
2017-10-02T04:34:50.765Z,21.97
2017-10-02T04:37:19.680Z,16.03
2017-10-02T04:39:48.582Z,17.67
2017-10-02T04:42:16.672Z,16.93
2017-10-02T04:44:44.767Z,20.60
2017-10-02T04:47:14.400Z,16.10
2017-10-02T04:49:42.519Z,15.53
2017-10-02T04:52:10.640Z,14.67
2017-10-02T04:54:39.495Z,14.80
2017-10-02T04:57:08.363Z,16.13
2017-10-02T04:59:36.526Z,15.17
2017-10-02T05:02:04.644Z,14.77
2017-10-02T05:04:32.775Z,14.73
2017-10-02T05:07:01.632Z,15.00
2017-10-02T05:09:29.733Z,15.13
2017-10-02T05:11:57.859Z,13.77
2017-10-02T05:14:25.987Z,13.67
2017-10-02T05:16:54.176Z,15.17
2017-10-02T05:19:23.347Z,13.97
2017-10-02T05:21:52.309Z,17.03
2017-10-02T05:24:20.433Z,13.50
2017-10-02T05:26:48.546Z,14.43
2017-10-02T05:29:18.961Z,12.27
2017-10-02T05:31:47.058Z,14.23
2017-10-02T05:34:15.179Z,14.00
2017-10-02T05:36:43.290Z,16.10
2017-10-02T05:39:12.192Z,12.50
2017-10-02T05:41:41.080Z,12.43
2017-10-02T05:44:09.177Z,12.57
2017-10-02T05:46:37.496Z,13.17
2017-10-02T05:49:05.717Z,14.77
2017-10-02T05:51:34.612Z,12.83
2017-10-02T05:54:02.745Z,12.67
2017-10-02T05:56:30.839Z,12.07
2017-10-02T05:58:58.991Z,13.17
2017-10-02T06:01:27.902Z,13.27
2017-10-02T06:03:55.992Z,13.80
2017-10-02T06:06:24.166Z,12.10
2017-10-02T06:08:53.153Z,12.00
2017-10-02T06:11:21.271Z,14.83
2017-10-02T06:13:50.191Z,12.57
2017-10-02T06:16:19.094Z,14.10
2017-10-02T06:18:47.214Z,14.00
2017-10-02T06:21:15.303Z,13.10
2017-10-02T06:23:44.285Z,13.27
2017-10-02T06:26:12.402Z,12.70
2017-10-02T06:28:45.664Z,14.30
2017-10-02T06:31:13.785Z,15.90
2017-10-02T06:33:41.924Z,15.50
2017-10-02T06:36:12.872Z,20.83
2017-10-02T06:38:40.952Z,21.57
2017-10-02T06:41:09.880Z,12.37
2017-10-02T06:43:38.092Z,17.13
2017-10-02T06:46:06.334Z,15.03
2017-10-02T06:48:35.336Z,13.97
2017-10-02T06:51:04.301Z,14.57
2017-10-02T06:53:32.428Z,13.47
2017-10-02T06:56:00.588Z,14.43
2017-10-02T06:58:28.746Z,14.50
2017-10-02T07:00:56.859Z,14.00
2017-10-02T07:03:25.841Z,14.67
2017-10-02T07:05:53.949Z,14.67
2017-10-02T07:08:22.747Z,12.50
2017-10-02T07:10:50.881Z,14.70
2017-10-02T07:13:19.056Z,18.37
2017-10-02T07:15:47.252Z,15.83
2017-10-02T07:18:16.148Z,14.90
2017-10-02T07:20:44.257Z,12.83
2017-10-02T07:23:12.468Z,13.20
2017-10-02T07:25:40.583Z,13.27
2017-10-02T07:28:09.488Z,13.57
2017-10-02T07:30:37.637Z,12.13
2017-10-02T07:33:05.829Z,13.47
2017-10-02T07:35:33.912Z,12.63
2017-10-02T07:38:02.029Z,12.03
2017-10-02T07:40:30.122Z,12.83
2017-10-02T07:42:58.214Z,11.70
2017-10-02T07:45:26.364Z,11.93
2017-10-02T07:47:54.437Z,11.37
2017-10-02T07:50:22.610Z,14.10
2017-10-02T07:52:50.736Z,13.23
2017-10-02T07:55:19.167Z,15.87
2017-10-02T07:57:47.396Z,13.93
2017-10-02T08:00:16.263Z,12.70
2017-10-02T08:02:45.229Z,17.30
2017-10-02T08:05:13.368Z,12.10
2017-10-02T08:07:41.460Z,11.93
2017-10-02T08:10:09.550Z,13.00
2017-10-02T08:12:38.390Z,17.33
2017-10-02T08:15:07.256Z,24.87
2017-10-02T08:17:36.922Z,14.60
2017-10-02T08:20:05.050Z,18.10
2017-10-02T08:22:33.255Z,15.23
2017-10-02T08:25:01.457Z,14.27
2017-10-02T08:27:29.576Z,15.53
2017-10-02T08:29:57.715Z,14.90
2017-10-02T08:32:25.853Z,16.03
2017-10-02T08:34:53.976Z,18.03
2017-10-02T08:37:22.907Z,15.33
2017-10-02T08:39:50.996Z,16.93
2017-10-02T08:42:19.133Z,17.60
2017-10-02T08:44:48.022Z,19.67
2017-10-02T08:47:16.912Z,15.40
2017-10-02T08:49:44.999Z,17.83
2017-10-02T08:52:13.148Z,17.43
2017-10-02T08:54:41.289Z,15.90
2017-10-02T08:57:09.607Z,16.93
2017-10-02T08:59:37.777Z,18.70
2017-10-02T09:02:06.019Z,15.03
2017-10-02T09:04:34.901Z,15.67
2017-10-02T09:07:03.756Z,16.27
2017-10-02T09:09:32.623Z,16.10
2017-10-02T09:12:02.296Z,20.40
2017-10-02T09:14:30.445Z,14.87
2017-10-02T09:16:58.592Z,17.13
2017-10-02T09:19:26.721Z,13.70
2017-10-02T09:21:54.822Z,15.77
2017-10-02T09:24:22.957Z,16.73
2017-10-02T09:26:51.072Z,13.00
2017-10-02T09:29:19.312Z,13.63
2017-10-02T09:31:47.454Z,11.90
2017-10-02T09:34:15.578Z,12.20
2017-10-02T09:36:43.713Z,11.50
2017-10-02T09:39:11.875Z,10.70
2017-10-02T09:41:39.995Z,10.43
2017-10-02T09:44:08.141Z,11.00
2017-10-02T09:46:36.249Z,10.17
2017-10-02T09:49:04.376Z,9.23
2017-10-02T09:51:32.471Z,10.20
2017-10-02T09:54:01.339Z,10.73
2017-10-02T09:56:29.466Z,11.87
2017-10-02T09:58:57.588Z,9.60
2017-10-02T10:01:26.464Z,9.97
2017-10-02T10:03:55.352Z,9.10
2017-10-02T10:06:24.857Z,11.47
2017-10-02T10:08:53.772Z,9.07
2017-10-02T10:11:23.370Z,10.13
2017-10-02T10:13:51.479Z,9.70
2017-10-02T10:16:19.615Z,9.10
2017-10-02T10:18:47.823Z,9.43
2017-10-02T10:21:15.921Z,8.80
2017-10-02T10:23:44.012Z,8.23
2017-10-02T10:26:12.129Z,8.40
2017-10-02T10:28:40.199Z,8.93
2017-10-02T10:31:08.306Z,7.53
2017-10-02T10:33:36.402Z,9.07
2017-10-02T10:36:04.468Z,7.77
2017-10-02T10:38:32.555Z,7.33
2017-10-02T10:41:00.687Z,9.90
2017-10-02T10:43:29.578Z,7.60
2017-10-02T10:45:57.747Z,7.40
2017-10-02T10:48:25.848Z,9.43
2017-10-02T10:50:54.645Z,7.53
2017-10-02T10:53:22.745Z,7.40
2017-10-02T10:55:50.860Z,6.70
2017-10-02T10:58:18.970Z,6.90
2017-10-02T11:00:47.072Z,6.83
2017-10-02T11:03:15.209Z,6.60
2017-10-02T11:05:43.333Z,6.40
2017-10-02T11:08:11.414Z,6.57
2017-10-02T11:10:39.510Z,5.90
2017-10-02T11:13:07.596Z,5.90
2017-10-02T11:15:35.674Z,5.93
2017-10-02T11:18:04.546Z,5.83
2017-10-02T11:20:32.666Z,5.60
2017-10-02T11:23:00.769Z,5.30
2017-10-02T11:25:28.936Z,5.33
2017-10-02T11:27:57.060Z,7.90
2017-10-02T11:30:25.165Z,11.03
2017-10-02T11:32:53.299Z,5.33
2017-10-02T11:35:22.899Z,5.13
2017-10-02T11:37:51.031Z,6.13
2017-10-02T11:40:19.187Z,5.37
2017-10-02T11:42:47.325Z,5.40
2017-10-02T11:45:16.311Z,5.30
2017-10-02T11:47:44.386Z,6.77
2017-10-02T11:50:12.509Z,5.47
2017-10-02T11:52:41.393Z,6.20
2017-10-02T11:55:09.518Z,8.87
2017-10-02T11:57:37.614Z,8.07
2017-10-02T12:00:05.733Z,6.13
2017-10-02T12:02:33.822Z,6.90
2017-10-02T12:05:01.905Z,6.93
2017-10-02T12:07:30.025Z,6.73
2017-10-02T12:09:58.928Z,6.53
2017-10-02T12:12:27.859Z,5.20
2017-10-02T12:14:55.991Z,5.00
2017-10-02T12:17:24.117Z,6.37
2017-10-02T12:19:52.381Z,7.47
2017-10-02T12:22:20.593Z,6.57
2017-10-02T12:24:48.717Z,7.00
2017-10-02T12:27:17.671Z,7.37
2017-10-02T12:29:45.793Z,7.40
2017-10-02T12:32:14.112Z,7.00
2017-10-02T12:34:42.229Z,8.57
2017-10-02T12:37:10.371Z,7.90
2017-10-02T12:39:38.471Z,7.40
2017-10-02T12:42:06.571Z,8.43
2017-10-02T12:44:34.724Z,8.33
2017-10-02T12:47:02.836Z,7.47
2017-10-02T12:49:30.936Z,8.70
2017-10-02T12:51:59.044Z,8.83
2017-10-02T12:54:27.121Z,10.70
2017-10-02T12:56:55.221Z,8.30
2017-10-02T12:59:23.319Z,9.93
2017-10-02T13:01:51.434Z,10.67
2017-10-02T13:04:19.516Z,9.03
2017-10-02T13:06:47.647Z,9.47
2017-10-02T13:09:15.861Z,8.63
2017-10-02T13:11:44.745Z,8.97
2017-10-02T13:14:12.873Z,9.73
2017-10-02T13:16:40.996Z,9.00
2017-10-02T13:19:09.122Z,7.93
2017-10-02T13:21:38.005Z,9.47
2017-10-02T13:24:06.852Z,9.50
2017-10-02T13:26:34.962Z,9.47
2017-10-02T13:29:03.093Z,10.53
2017-10-02T13:31:31.202Z,9.03
2017-10-02T13:34:00.048Z,9.70
2017-10-02T13:36:28.214Z,10.10
2017-10-02T13:38:57.052Z,9.53
2017-10-02T13:41:25.390Z,9.40
2017-10-02T13:43:54.238Z,12.43
2017-10-02T13:46:23.098Z,8.67
2017-10-02T13:48:51.199Z,12.40
2017-10-02T13:51:19.320Z,10.30
2017-10-02T13:53:47.491Z,12.10
2017-10-02T13:56:15.551Z,10.43
2017-10-02T13:58:43.670Z,14.57
2017-10-02T14:01:11.763Z,10.63
2017-10-02T14:03:39.895Z,10.60
2017-10-02T14:06:08.766Z,11.00
2017-10-02T14:08:36.865Z,10.33
2017-10-02T14:11:05.003Z,9.27
2017-10-02T14:13:33.915Z,14.30
2017-10-02T14:16:02.797Z,9.17
2017-10-02T14:18:30.923Z,11.73
2017-10-02T14:20:59.014Z,11.70
2017-10-02T14:23:27.106Z,11.13
2017-10-02T14:25:55.961Z,16.23
2017-10-02T14:28:24.702Z,12.40
2017-10-02T14:30:52.805Z,10.20
2017-10-02T14:33:21.831Z,12.70
2017-10-02T14:35:50.690Z,11.73
2017-10-02T14:38:18.804Z,9.87
2017-10-02T14:40:46.881Z,11.37
2017-10-02T14:43:14.969Z,11.00
2017-10-02T14:45:43.106Z,14.53
2017-10-02T14:48:11.246Z,10.63
2017-10-02T14:50:39.354Z,14.27
2017-10-02T14:53:07.458Z,10.63
2017-10-02T14:55:35.565Z,15.43
2017-10-02T14:58:03.693Z,13.73
2017-10-02T15:00:32.307Z,16.10
2017-10-02T15:03:00.533Z,14.20
2017-10-02T15:05:28.602Z,13.10
2017-10-02T15:07:56.688Z,17.00
2017-10-02T15:10:25.540Z,15.33
2017-10-02T15:12:53.645Z,16.70
2017-10-02T15:15:21.769Z,11.57
2017-10-02T15:17:49.925Z,25.47
2017-10-02T15:20:18.028Z,11.60
2017-10-02T15:22:46.135Z,21.73
2017-10-02T15:25:15.340Z,17.13
2017-10-02T15:27:44.224Z,16.80
2017-10-02T15:30:12.315Z,15.83
2017-10-02T15:32:40.481Z,12.03
2017-10-02T15:35:08.599Z,16.83
2017-10-02T15:37:36.671Z,12.80
2017-10-02T15:40:05.537Z,12.63
2017-10-02T15:42:33.656Z,13.40
2017-10-02T15:45:01.760Z,13.43
2017-10-02T15:47:29.890Z,13.87
2017-10-02T15:49:58.050Z,13.47
2017-10-02T15:52:26.193Z,16.43
2017-10-02T15:54:54.284Z,15.77
2017-10-02T15:57:22.413Z,13.77
2017-10-02T15:59:50.625Z,15.10
2017-10-02T16:02:19.056Z,14.80
2017-10-02T16:04:47.778Z,15.50
2017-10-02T16:07:15.855Z,16.80
2017-10-02T16:09:44.020Z,17.67
2017-10-02T16:12:12.118Z,15.07
2017-10-02T16:14:40.253Z,14.80
2017-10-02T16:17:08.366Z,14.90
2017-10-02T16:19:37.257Z,14.90
2017-10-02T16:22:06.159Z,13.87
2017-10-02T16:24:34.264Z,13.27
2017-10-02T16:27:02.371Z,13.87
2017-10-02T16:29:30.481Z,16.10
2017-10-02T16:31:58.626Z,19.17
2017-10-02T16:34:27.553Z,18.60
2017-10-02T16:36:55.636Z,14.30
2017-10-02T16:39:24.783Z,18.53
2017-10-02T16:41:52.877Z,16.23
2017-10-02T16:44:20.990Z,17.00
2017-10-02T16:46:49.102Z,17.03
2017-10-02T16:49:17.253Z,16.97
2017-10-02T16:51:46.113Z,17.67
2017-10-02T16:54:14.207Z,19.90
2017-10-02T16:56:43.027Z,23.17
2017-10-02T16:59:11.123Z,17.33
2017-10-02T17:01:39.283Z,16.43
2017-10-02T17:04:09.165Z,16.53
2017-10-02T17:06:37.259Z,15.70
2017-10-02T17:09:05.377Z,15.70
2017-10-02T17:11:34.273Z,15.00
2017-10-02T17:14:02.353Z,14.23
2017-10-02T17:16:31.193Z,18.60
2017-10-02T17:18:59.314Z,16.83
2017-10-02T17:21:28.737Z,23.67
2017-10-02T17:23:58.453Z,16.07
2017-10-02T17:26:26.643Z,18.50
2017-10-02T17:28:54.779Z,17.40
2017-10-02T17:31:24.167Z,21.27
2017-10-02T17:33:52.328Z,23.90
2017-10-02T17:36:20.424Z,24.00
2017-10-02T17:38:48.551Z,24.03
2017-10-02T17:41:16.625Z,18.53
2017-10-02T17:43:44.739Z,18.60
2017-10-02T17:46:18.627Z,21.20
2017-10-02T17:48:47.849Z,13.47
2017-10-02T17:51:15.949Z,18.93
2017-10-02T17:53:44.456Z,18.10
2017-10-02T17:56:13.423Z,16.10
2017-10-02T17:58:41.502Z,17.57
2017-10-02T18:01:10.374Z,14.17
2017-10-02T18:03:38.456Z,17.07
2017-10-02T18:06:06.568Z,17.00
2017-10-02T18:08:34.655Z,18.33
2017-10-02T18:11:02.726Z,18.93
2017-10-02T18:13:31.597Z,17.37
2017-10-02T18:15:59.687Z,19.53
2017-10-02T18:18:27.878Z,21.20
2017-10-02T18:20:55.966Z,22.50
2017-10-02T18:23:24.166Z,16.27
2017-10-02T18:25:53.187Z,28.37
2017-10-02T18:28:21.272Z,20.43
2017-10-02T18:30:49.409Z,16.00
2017-10-02T18:33:17.526Z,19.37
2017-10-02T18:35:45.656Z,17.47
2017-10-02T18:38:14.584Z,16.63
2017-10-02T18:40:43.481Z,20.97
2017-10-02T18:43:13.089Z,17.87
2017-10-02T18:45:41.722Z,14.73
2017-10-02T18:48:09.839Z,16.33
2017-10-02T18:50:37.962Z,13.77
2017-10-02T18:53:06.034Z,16.80
2017-10-02T18:55:34.156Z,13.50
2017-10-02T18:58:02.231Z,20.90
2017-10-02T19:00:31.128Z,19.60
2017-10-02T19:02:59.216Z,15.00
2017-10-02T19:05:28.427Z,15.60
2017-10-02T19:07:56.573Z,17.03
2017-10-02T19:10:24.682Z,18.37
2017-10-02T19:12:53.565Z,17.70
2017-10-02T19:15:21.703Z,19.23
2017-10-02T19:17:49.829Z,17.40
2017-10-02T19:20:18.000Z,18.03
2017-10-02T19:22:46.121Z,39.33
2017-10-02T19:25:14.940Z,74.10
2017-10-02T19:27:43.036Z,66.20
2017-10-02T19:30:11.159Z,46.30
2017-10-02T19:32:39.266Z,36.70
2017-10-02T19:35:07.404Z,50.43
2017-10-02T19:37:36.753Z,55.50
2017-10-02T19:40:04.880Z,29.87
2017-10-02T19:42:32.999Z,20.53
2017-10-02T19:45:01.117Z,20.33
2017-10-02T19:47:29.264Z,24.47
2017-10-02T19:49:58.183Z,21.47
2017-10-02T19:52:27.090Z,27.13
2017-10-02T19:54:55.199Z,26.60
2017-10-02T19:57:23.298Z,21.03
2017-10-02T19:59:51.487Z,17.23
2017-10-02T20:02:20.374Z,18.40
2017-10-02T20:04:49.118Z,14.77
2017-10-02T20:07:17.246Z,18.20
2017-10-02T20:09:45.348Z,20.97
2017-10-02T20:12:13.473Z,25.00
2017-10-02T20:14:41.585Z,19.93
2017-10-02T20:17:09.750Z,29.77
2017-10-02T20:19:37.834Z,22.23
2017-10-02T20:22:05.947Z,16.87
2017-10-02T20:24:34.016Z,19.43
2017-10-02T20:27:02.126Z,19.03
2017-10-02T20:29:30.244Z,14.80
2017-10-02T20:31:58.369Z,24.03
2017-10-02T20:34:26.493Z,19.67
2017-10-02T20:36:54.914Z,27.57
2017-10-02T20:39:23.788Z,17.10
2017-10-02T20:41:52.894Z,18.60
2017-10-02T20:44:21.140Z,16.97
2017-10-02T20:46:49.223Z,15.93
2017-10-02T20:49:17.309Z,12.20
2017-10-02T20:51:45.419Z,20.90
2017-10-02T20:54:13.646Z,23.83
2017-10-02T20:56:41.769Z,14.57
2017-10-02T20:59:09.856Z,18.13
2017-10-02T21:01:38.743Z,22.67
2017-10-02T21:04:07.602Z,26.73
2017-10-02T21:06:36.462Z,19.13
2017-10-02T21:09:04.560Z,20.03
2017-10-02T21:11:33.441Z,20.27
2017-10-02T21:14:02.175Z,17.80
2017-10-02T21:16:30.280Z,25.10
2017-10-02T21:18:58.361Z,16.53
2017-10-02T21:21:27.239Z,22.00
2017-10-02T21:23:55.314Z,15.80
2017-10-02T21:26:23.448Z,21.10
2017-10-02T21:28:52.313Z,17.23
2017-10-02T21:31:20.418Z,17.80
2017-10-02T21:33:49.293Z,21.03
2017-10-02T21:36:17.374Z,20.37
2017-10-02T21:38:45.493Z,20.07
2017-10-02T21:41:13.604Z,18.30
2017-10-02T21:43:42.504Z,18.13
2017-10-02T21:46:10.584Z,17.47
2017-10-02T21:48:38.781Z,17.87
2017-10-02T21:51:06.900Z,16.87
2017-10-02T21:53:35.002Z,20.57
2017-10-02T21:56:03.114Z,26.37
2017-10-02T21:58:31.988Z,24.87
2017-10-02T22:01:00.113Z,24.73
2017-10-02T22:03:28.234Z,21.00
2017-10-02T22:05:56.850Z,18.37
2017-10-02T22:08:25.199Z,15.43
2017-10-02T22:10:53.286Z,24.20
2017-10-02T22:13:22.427Z,20.10
2017-10-02T22:15:51.292Z,17.80
2017-10-02T22:18:19.427Z,15.00
2017-10-02T22:20:47.565Z,25.03
2017-10-02T22:23:15.673Z,20.63
2017-10-02T22:25:43.807Z,22.60
2017-10-02T22:28:13.409Z,20.00
2017-10-02T22:30:41.524Z,16.17
2017-10-02T22:33:09.861Z,16.77
2017-10-02T22:35:37.952Z,12.30
2017-10-02T22:38:06.740Z,18.77
2017-10-02T22:40:34.831Z,18.57
2017-10-02T22:43:03.291Z,16.67
2017-10-02T22:45:31.462Z,16.30
2017-10-02T22:47:59.604Z,18.07
2017-10-02T22:50:27.713Z,16.10
2017-10-02T22:52:55.810Z,19.63
2017-10-02T22:55:24.008Z,19.20
2017-10-02T22:57:52.148Z,17.07
2017-10-02T23:00:20.255Z,17.37
2017-10-02T23:02:48.352Z,15.70
2017-10-02T23:05:16.446Z,15.87
2017-10-02T23:07:44.546Z,20.03
2017-10-02T23:10:13.427Z,19.03
2017-10-02T23:12:41.509Z,30.83
2017-10-02T23:15:10.386Z,15.70
2017-10-02T23:17:38.668Z,21.03
2017-10-02T23:20:06.868Z,21.87
2017-10-02T23:22:35.746Z,21.63
2017-10-02T23:25:03.863Z,23.13
2017-10-02T23:27:32.000Z,16.27
2017-10-02T23:30:00.113Z,20.70
2017-10-02T23:32:29.033Z,19.80
2017-10-02T23:34:57.191Z,18.03
2017-10-02T23:37:25.295Z,13.57
2017-10-02T23:39:54.897Z,23.60
2017-10-02T23:42:23.092Z,14.77
2017-10-02T23:44:52.098Z,14.13
2017-10-02T23:47:20.204Z,15.70
2017-10-02T23:49:48.309Z,18.67
2017-10-02T23:52:16.411Z,20.27
2017-10-02T23:54:44.555Z,18.10
2017-10-02T23:57:13.840Z,16.77
2017-10-02T23:59:42.734Z,20.87
